Crofts Corners, New York
Current Conditions -  °F | °C
As of 10:45 AM on Sunday 25 Jan 2015 (Local Time) from KSWF Reporting Station
Scattered Clouds Scattered Clouds  
Wind Chill: 23°   Ceiling: Unl
Heat Index: 34°   Visibility: 20mi
Dew Point: 18°   Wind: 17mph
Humidity: 52%   Direction: 320°NW
Pressure: 29.75"   Gusts: 29mph
Location:  41.3969°N, 73.8382°W
Report Text: KSWF 251545Z 32015G25KT 20SM SCT045 01/M08 A2975
Loading
Personal Weather Stations






























Interactive Weather Map New forecast layout! Learn more

10-Day Weather Forecast

Advertisements
Track Severe Weather on mobile